createdAt,value
2018-11-12T00:02:06.818Z,11.40
2018-11-12T00:07:10.439Z,11.60
2018-11-12T00:12:13.996Z,11.70
2018-11-12T00:17:17.571Z,11.70
2018-11-12T00:22:21.617Z,11.70
2018-11-12T00:27:25.325Z,11.60
2018-11-12T00:32:29.012Z,11.40
2018-11-12T00:37:32.907Z,11.50
2018-11-12T00:42:36.612Z,11.60
2018-11-12T00:47:40.447Z,11.70
2018-11-12T00:52:44.142Z,11.70
2018-11-12T00:57:47.717Z,11.80
2018-11-12T01:02:52.150Z,11.80
2018-11-12T01:07:55.763Z,11.90
2018-11-12T01:12:59.804Z,11.90
2018-11-12T01:18:03.736Z,11.90
2018-11-12T01:23:08.181Z,11.90
2018-11-12T01:28:11.769Z,11.80
2018-11-12T01:33:15.558Z,11.90
2018-11-12T01:38:19.135Z,11.80
2018-11-12T01:43:22.685Z,11.70
2018-11-12T01:48:26.348Z,11.70
2018-11-12T01:53:29.963Z,11.60
2018-11-12T01:58:33.922Z,11.70
2018-11-12T02:03:37.568Z,11.80
2018-11-12T02:08:41.237Z,11.80
2018-11-12T02:13:44.759Z,11.80
2018-11-12T02:18:48.325Z,11.70
2018-11-12T02:23:51.887Z,11.70
2018-11-12T02:28:55.492Z,11.70
2018-11-12T02:33:59.217Z,11.70
2018-11-12T02:39:02.884Z,11.70
2018-11-12T02:44:06.980Z,11.70
2018-11-12T02:49:10.596Z,11.70
2018-11-12T02:54:14.472Z,11.70
2018-11-12T02:59:18.102Z,11.70
2018-11-12T03:04:22.387Z,11.70
2018-11-12T03:09:25.988Z,11.70
2018-11-12T03:14:29.560Z,11.70
2018-11-12T03:19:33.119Z,11.60
2018-11-12T03:24:36.689Z,11.70
2018-11-12T03:29:40.650Z,11.50
2018-11-12T03:34:44.211Z,11.40
2018-11-12T03:39:47.852Z,11.50
2018-11-12T03:44:51.387Z,11.30
2018-11-12T03:49:55.057Z,11.00
2018-11-12T03:54:58.725Z,11.00
2018-11-12T04:00:02.393Z,11.00
2018-11-12T04:05:06.108Z,11.00
2018-11-12T04:10:12.946Z,11.10
2018-11-12T04:15:17.988Z,11.10
2018-11-12T04:20:22.804Z,11.00
2018-11-12T04:25:26.533Z,10.80
2018-11-12T04:30:39.186Z,11.00
2018-11-12T04:35:42.839Z,11.10
2018-11-12T04:40:46.471Z,11.00
2018-11-12T04:45:50.569Z,11.00
2018-11-12T04:50:54.167Z,10.70
2018-11-12T04:55:57.866Z,10.50
2018-11-12T05:01:01.426Z,10.70
2018-11-12T05:06:05.243Z,10.80
2018-11-12T05:11:08.928Z,10.90
2018-11-12T05:16:12.864Z,11.00
2018-11-12T05:21:16.459Z,11.20
2018-11-12T05:26:20.070Z,11.30
2018-11-12T05:31:23.691Z,11.20
2018-11-12T05:36:27.312Z,11.20
2018-11-12T05:41:31.436Z,11.20
2018-11-12T05:46:35.428Z,11.10
2018-11-12T05:51:39.272Z,11.10
2018-11-12T05:56:42.827Z,11.10
2018-11-12T06:01:46.412Z,11.10
2018-11-12T06:06:50.112Z,11.10
2018-11-12T06:11:53.716Z,11.20
2018-11-12T06:16:57.355Z,11.20
2018-11-12T06:22:00.976Z,11.20
2018-11-12T06:27:05.174Z,11.20
2018-11-12T06:32:08.767Z,11.10
2018-11-12T06:37:13.056Z,11.00
2018-11-12T06:42:16.969Z,10.90
2018-11-12T06:47:20.774Z,10.90
2018-11-12T06:52:24.417Z,10.90
2018-11-12T06:57:30.948Z,10.90
2018-11-12T07:02:37.998Z,11.00
2018-11-12T07:07:44.188Z,11.00
2018-11-12T07:12:48.440Z,11.00
2018-11-12T07:17:52.034Z,11.00
2018-11-12T07:22:55.637Z,11.00
2018-11-12T07:27:59.537Z,11.00
2018-11-12T07:33:03.126Z,11.00
2018-11-12T07:38:06.751Z,11.10
2018-11-12T07:43:10.318Z,11.20
2018-11-12T07:48:13.985Z,11.20
2018-11-12T07:53:17.882Z,11.20
2018-11-12T07:58:21.468Z,11.20
2018-11-12T08:03:25.053Z,11.00
2018-11-12T08:08:28.634Z,10.50
2018-11-12T08:13:32.257Z,10.40
2018-11-12T08:18:37.085Z,10.10
2018-11-12T08:23:40.764Z,10.30
2018-11-12T08:28:44.326Z,9.80
2018-11-12T08:33:48.079Z,10.10
2018-11-12T08:38:51.904Z,10.20
2018-11-12T08:43:55.554Z,9.80
2018-11-12T08:48:59.281Z,10.10
2018-11-12T08:54:02.775Z,9.70
2018-11-12T08:59:08.198Z,9.40
2018-11-12T09:04:11.994Z,9.30
2018-11-12T09:09:15.516Z,9.50
2018-11-12T09:14:19.375Z,9.30
2018-11-12T09:19:23.118Z,8.80
2018-11-12T09:24:26.740Z,8.80
2018-11-12T09:29:30.416Z,9.50
2018-11-12T09:34:34.195Z,10.00
2018-11-12T09:39:38.064Z,9.90
2018-11-12T09:44:41.872Z,9.80
2018-11-12T09:49:45.484Z,10.50
2018-11-12T09:54:49.181Z,10.90
2018-11-12T09:59:52.798Z,12.30
2018-11-12T10:04:57.750Z,11.70
2018-11-12T10:10:02.907Z,11.70
2018-11-12T10:15:06.541Z,12.50
2018-11-12T10:20:10.739Z,12.10
2018-11-12T10:25:14.247Z,14.80
2018-11-12T10:30:17.840Z,18.10
2018-11-12T10:35:21.428Z,17.80
2018-11-12T10:40:25.630Z,17.60
2018-11-12T10:45:29.316Z,16.80
2018-11-12T10:50:33.055Z,16.30
2018-11-12T10:55:36.847Z,14.70
2018-11-12T11:00:45.708Z,14.70
2018-11-12T11:05:51.316Z,14.10
2018-11-12T11:10:55.006Z,13.90
2018-11-12T11:15:58.658Z,14.30
2018-11-12T11:21:02.219Z,14.50
2018-11-12T11:26:05.864Z,14.30
2018-11-12T11:31:09.424Z,15.40
2018-11-12T11:36:13.256Z,17.30
2018-11-12T11:41:17.196Z,18.80
2018-11-12T11:46:20.828Z,19.20
2018-11-12T11:51:24.400Z,18.60
2018-11-12T11:56:33.315Z,18.40
2018-11-12T12:01:37.810Z,18.80
2018-11-12T12:06:41.377Z,18.50
2018-11-12T12:11:44.998Z,18.50
2018-11-12T12:16:48.564Z,18.70
2018-11-12T12:21:52.157Z,18.80
2018-11-12T12:26:55.758Z,19.00
2018-11-12T12:31:59.336Z,19.60
2018-11-12T12:37:02.988Z,19.70
2018-11-12T12:42:06.563Z,20.10
2018-11-12T12:47:10.120Z,20.40
2018-11-12T12:52:13.768Z,20.80
2018-11-12T12:57:17.643Z,20.30
2018-11-12T13:02:21.367Z,19.90
2018-11-12T13:07:24.929Z,20.00
2018-11-12T13:12:28.830Z,20.60
2018-11-12T13:17:32.379Z,21.00
2018-11-12T13:27:41.733Z,20.70
2018-11-12T13:32:46.332Z,20.50
2018-11-12T13:37:50.850Z,20.40
2018-11-12T13:42:57.804Z,20.30
2018-11-12T13:48:01.374Z,20.20
2018-11-12T13:53:05.092Z,19.60
2018-11-12T13:58:08.876Z,19.40
2018-11-12T14:03:12.436Z,19.30
2018-11-12T14:08:15.974Z,18.90
2018-11-12T14:13:19.558Z,18.50
2018-11-12T14:18:23.200Z,18.40
2018-11-12T14:23:26.765Z,18.30
2018-11-12T14:28:31.413Z,18.80
2018-11-12T14:33:34.850Z,19.90
2018-11-12T14:38:38.603Z,21.10
2018-11-12T14:43:42.231Z,21.80
2018-11-12T14:48:46.223Z,21.80
2018-11-12T14:53:49.792Z,21.70
2018-11-12T14:58:53.451Z,22.20
2018-11-12T15:03:57.003Z,22.30
2018-11-12T15:09:01.213Z,21.90
2018-11-12T15:14:04.839Z,22.00
2018-11-12T15:19:09.274Z,22.00
2018-11-12T15:24:12.838Z,21.90
2018-11-12T15:29:16.635Z,21.60
2018-11-12T15:34:20.213Z,21.30
2018-11-12T15:39:23.915Z,20.80
2018-11-12T15:44:27.523Z,19.70
2018-11-12T15:49:31.100Z,19.10
2018-11-12T15:54:34.645Z,18.60
2018-11-12T15:59:38.436Z,18.30
2018-11-12T16:04:42.017Z,18.10
2018-11-12T16:09:45.634Z,17.80
2018-11-12T16:14:49.336Z,17.60
2018-11-12T16:19:53.264Z,17.40
2018-11-12T16:24:56.821Z,17.20
2018-11-12T16:30:00.511Z,16.80
2018-11-12T16:35:04.950Z,16.60
2018-11-12T16:40:09.075Z,16.30
2018-11-12T16:45:13.514Z,16.00
2018-11-12T16:50:18.087Z,15.70
2018-11-12T16:55:22.758Z,15.60
2018-11-12T17:00:26.514Z,15.40
2018-11-12T17:05:30.076Z,15.20
2018-11-12T17:10:33.689Z,15.00
2018-11-12T17:15:37.235Z,14.90
2018-11-12T17:20:40.863Z,14.70
2018-11-12T17:25:45.092Z,14.50
2018-11-12T17:30:48.781Z,14.30
2018-11-12T17:35:52.409Z,14.20
2018-11-12T17:40:56.009Z,14.00
2018-11-12T17:45:59.658Z,13.90
2018-11-12T17:51:03.537Z,13.70
2018-11-12T17:56:07.212Z,13.60
2018-11-12T18:01:11.132Z,13.60
2018-11-12T18:06:15.099Z,13.50
2018-11-12T18:11:19.260Z,13.40
2018-11-12T18:16:22.883Z,13.30
2018-11-12T18:21:26.880Z,13.20
2018-11-12T18:26:30.777Z,13.00
2018-11-12T18:31:34.715Z,13.00
2018-11-12T18:36:38.132Z,13.00
2018-11-12T18:41:41.747Z,12.90
2018-11-12T18:46:45.370Z,12.70
2018-11-12T18:51:48.989Z,12.70
2018-11-12T18:56:52.984Z,12.60
2018-11-12T19:01:56.882Z,12.50
2018-11-12T19:07:01.020Z,12.50
2018-11-12T19:12:06.257Z,12.40
2018-11-12T19:17:10.021Z,12.30
2018-11-12T19:22:13.672Z,12.10
2018-11-12T19:27:17.329Z,12.10
2018-11-12T19:32:20.954Z,12.10
2018-11-12T19:37:24.848Z,12.00
2018-11-12T19:42:28.447Z,12.10
2018-11-12T19:47:32.119Z,12.00
2018-11-12T19:52:36.919Z,11.90
2018-11-12T19:57:41.074Z,11.80
2018-11-12T20:02:45.851Z,11.70
2018-11-12T20:07:49.469Z,11.60
2018-11-12T20:12:53.389Z,11.50
2018-11-12T20:17:58.442Z,11.40
2018-11-12T20:23:02.227Z,11.40
2018-11-12T20:28:05.995Z,11.50
2018-11-12T20:33:09.556Z,11.40
2018-11-12T20:38:13.775Z,11.40
2018-11-12T20:43:17.391Z,11.40
2018-11-12T20:48:21.047Z,11.40
2018-11-12T20:53:24.642Z,11.40
2018-11-12T20:58:29.188Z,11.20
2018-11-12T21:03:33.223Z,11.10
2018-11-12T21:08:38.123Z,11.10
2018-11-12T21:13:41.936Z,11.10
2018-11-12T21:18:46.809Z,11.00
2018-11-12T21:23:51.281Z,11.00
2018-11-12T21:28:55.511Z,10.90
2018-11-12T21:33:59.144Z,10.90
2018-11-12T21:39:02.813Z,10.70
2018-11-12T21:44:07.106Z,10.80
2018-11-12T21:49:11.050Z,10.80
2018-11-12T21:54:15.556Z,10.70
2018-11-12T21:59:19.468Z,10.80
2018-11-12T22:04:23.398Z,10.70
2018-11-12T22:09:27.575Z,10.80
2018-11-12T22:14:31.252Z,10.80
2018-11-12T22:19:34.973Z,10.70
2018-11-12T22:24:43.838Z,10.80
2018-11-12T22:29:47.584Z,10.80
2018-11-12T22:34:53.050Z,10.90
2018-11-12T22:39:56.736Z,10.70
2018-11-12T22:45:00.324Z,10.60
2018-11-12T22:50:04.224Z,10.60
2018-11-12T22:55:08.598Z,10.60
2018-11-12T23:00:28.053Z,10.70
2018-11-12T23:05:31.600Z,10.90
2018-11-12T23:10:35.287Z,11.00
2018-11-12T23:15:38.848Z,11.00
2018-11-12T23:20:47.810Z,11.00
2018-11-12T23:25:51.920Z,11.00
2018-11-12T23:30:55.525Z,10.90
2018-11-12T23:35:59.071Z,10.90
2018-11-12T23:41:02.655Z,11.00
2018-11-12T23:46:06.424Z,10.90
2018-11-12T23:51:10.861Z,10.80
2018-11-12T23:56:14.451Z,10.50
